Time;durP1;ratioP1;P1;durP2;ratioP2;P2;SDS_P1;SDS_P2;PMS_P1;PMS_P2;Temp;Humidity;BMP_temperature;BMP_pressure;BME280_temperature;BME280_humidity;BME280_pressure;Samples;Min_cycle;Max_cycle;Signal;HPM_P1;HPM_P2
2022/01/03 00:00:32;;;;;;;37.10;8.75;;;;;;;11.31;66.51;100998.97;5192516;28;20498;-45
2022/01/03 00:03:09;;;;;;;31.38;6.63;;;;;;;11.30;66.54;101007.84;5194133;28;20891;-42
2022/01/03 00:05:42;;;;;;;35.53;6.67;;;;;;;11.28;66.63;100992.16;5196243;28;20443;-43
2022/01/03 00:08:14;;;;;;;48.20;7.55;;;;;;;11.28;66.58;100996.63;5186012;28;20461;-42
2022/01/03 00:10:47;;;;;;;31.92;6.65;;;;;;;11.28;66.60;101007.19;5189645;28;20498;-44
2022/01/03 00:13:21;;;;;;;36.88;7.53;;;;;;;11.26;66.57;101003.88;5191875;28;20430;-44
2022/01/03 00:15:55;;;;;;;39.40;6.22;;;;;;;11.25;66.64;100996.91;5190281;28;20949;-43
2022/01/03 00:18:28;;;;;;;38.55;5.97;;;;;;;11.21;66.60;101006.97;5186313;28;20427;-42
2022/01/03 00:21:01;;;;;;;35.15;7.63;;;;;;;11.18;66.79;101001.13;5198349;28;20477;-45
2022/01/03 00:23:37;;;;;;;38.85;7.78;;;;;;;11.15;66.69;100996.13;5188504;28;20421;-44
2022/01/03 00:26:11;;;;;;;32.83;6.53;;;;;;;11.12;66.61;100999.94;5191429;28;20869;-42
2022/01/03 00:28:57;;;;;;;41.03;7.78;;;;;;;11.22;66.63;100999.88;5202016;28;20413;-44
2022/01/03 00:31:37;;;;;;;33.78;5.97;;;;;;;11.20;66.66;101001.81;5188221;28;20513;-49
2022/01/03 00:34:12;;;;;;;36.45;7.28;;;;;;;11.18;66.71;101006.41;5190075;28;20421;-44
2022/01/03 00:36:47;;;;;;;33.95;7.40;;;;;;;11.19;66.59;101008.09;5193166;28;20413;-43
2022/01/03 00:39:19;;;;;;;34.60;7.37;;;;;;;11.18;66.69;101001.13;5191468;28;20423;-43
2022/01/03 00:41:51;;;;;;;28.08;6.90;;;;;;;11.17;66.60;101010.03;5192385;28;20583;-42
2022/01/03 00:44:26;;;;;;;42.40;7.97;;;;;;;11.15;66.73;101001.44;5194595;28;20883;-42
2022/01/03 00:46:59;;;;;;;36.80;7.57;;;;;;;11.12;66.76;101007.88;5193350;28;20421;-42
2022/01/03 00:49:31;;;;;;;33.13;7.10;;;;;;;11.13;66.60;101013.97;5188316;28;20407;-45
2022/01/03 00:52:04;;;;;;;32.85;6.85;;;;;;;11.13;66.61;101014.81;5186934;28;20594;-42
2022/01/03 00:54:37;;;;;;;32.08;7.50;;;;;;;11.13;66.71;101014.81;5200730;28;20421;-42
2022/01/03 00:57:19;;;;;;;34.15;6.82;;;;;;;10.99;66.75;100987.06;5192921;28;20895;-43
2022/01/03 01:00:02;;;;;;;38.97;7.97;;;;;;;11.12;66.61;101014.94;5190845;28;20463;-43
2022/01/03 01:02:38;;;;;;;32.90;6.65;;;;;;;11.11;66.62;101010.63;5189736;28;20417;-45
2022/01/03 01:05:10;;;;;;;42.45;8.00;;;;;;;11.08;66.70;101001.19;5193391;28;20413;-43
2022/01/03 01:07:44;;;;;;;41.15;9.40;;;;;;;11.14;66.55;101021.75;5199722;28;20751;-43
2022/01/03 01:10:16;;;;;;;42.85;8.70;;;;;;;11.14;66.67;101023.56;5205496;28;20504;-43
2022/01/03 01:12:49;;;;;;;34.83;7.90;;;;;;;11.16;66.60;101021.59;5202060;28;20770;-42
2022/01/03 01:15:23;;;;;;;33.55;7.93;;;;;;;11.17;66.57;101020.63;5203769;28;20412;-43
2022/01/03 01:17:57;;;;;;;30.95;6.53;;;;;;;11.16;66.50;101011.03;5192155;28;20487;-43
2022/01/03 01:20:30;;;;;;;32.13;7.07;;;;;;;11.16;66.60;101013.69;5199852;28;20414;-44
2022/01/03 01:23:02;;;;;;;40.88;8.65;;;;;;;11.14;66.60;101015.63;5192332;28;20410;-44
2022/01/03 01:28:21;;;;;;;36.55;7.43;;;;;;;11.14;66.27;101015.63;5171577;28;20830;-44
2022/01/03 01:30:57;;;;;;;39.88;7.93;;;;;;;11.12;66.38;101026.38;5190590;28;20419;-42
2022/01/03 01:33:35;;;;;;;43.78;8.45;;;;;;;11.02;66.53;101017.66;5197214;28;20490;-43
2022/01/03 01:36:09;;;;;;;38.30;8.48;;;;;;;10.99;66.51;101017.94;5193558;28;20421;-43
2022/01/03 01:38:44;;;;;;;42.15;7.85;;;;;;;10.96;66.53;101011.16;5190228;28;20429;-43
2022/01/03 01:41:20;;;;;;;37.17;7.22;;;;;;;11.07;66.45;101042.66;5193468;28;20419;-42
2022/01/03 01:43:53;;;;;;;39.15;8.70;;;;;;;11.08;66.29;101022.34;5197391;28;20775;-44
2022/01/03 01:46:28;;;;;;;45.75;8.20;;;;;;;11.06;66.42;101025.16;5191820;28;20417;-43
2022/01/03 01:49:05;;;;;;;36.47;8.18;;;;;;;11.07;66.36;101025.97;5205122;28;20417;-47
2022/01/03 01:51:39;;;;;;;44.92;8.30;;;;;;;11.08;66.21;101038.19;5199246;28;20762;-43
2022/01/03 01:54:15;;;;;;;33.37;7.97;;;;;;;11.07;66.18;101024.16;5188632;28;20475;-44
2022/01/03 01:57:04;;;;;;;36.03;8.35;;;;;;;11.07;66.18;101021.50;5205109;28;20490;-42
2022/01/03 01:59:43;;;;;;;36.20;8.13;;;;;;;11.06;66.23;101019.84;5179030;28;20411;-43
2022/01/03 02:02:35;;;;;;;37.88;8.75;;;;;;;11.04;66.18;101026.25;5190114;28;20438;-41
2022/01/03 02:05:22;;;;;;;39.65;7.22;;;;;;;11.04;66.28;101026.25;5192017;28;20421;-42
2022/01/03 02:08:13;;;;;;;40.70;8.05;;;;;;;10.85;66.17;101014.00;5201402;28;20494;-43
2022/01/03 02:10:50;;;;;;;37.42;6.65;;;;;;;11.04;66.16;101034.19;5195761;28;20541;-43
2022/01/03 02:13:25;;;;;;;33.05;7.65;;;;;;;10.98;66.06;101026.84;5189146;28;20431;-42
2022/01/03 02:16:03;;;;;;;41.03;8.77;;;;;;;11.03;66.05;101045.75;5197236;28;20419;-42
2022/01/03 02:18:36;;;;;;;47.72;9.63;;;;;;;11.02;66.11;101047.53;5186436;28;20467;-43
2022/01/03 02:21:10;;;;;;;37.25;7.53;;;;;;;11.02;66.08;101039.63;5196917;28;20829;-42
2022/01/03 02:23:42;;;;;;;34.97;7.27;;;;;;;10.99;66.07;101024.06;5195527;28;20431;-43
2022/01/03 02:26:15;;;;;;;43.33;8.60;;;;;;;11.00;66.12;101038.94;5194295;28;20423;-42
2022/01/03 02:28:47;;;;;;;47.65;9.68;;;;;;;11.00;66.07;101043.41;5204254;28;20421;-47
2022/01/03 02:31:21;;;;;;;45.33;8.88;;;;;;;10.94;66.04;101026.31;5180189;28;20823;-44
2022/01/03 02:33:54;;;;;;;40.75;8.00;;;;;;;11.03;66.09;101043.94;5202017;28;20413;-42
2022/01/03 02:36:28;;;;;;;46.97;9.32;;;;;;;10.96;65.99;101034.09;5193078;28;20418;-45
2022/01/03 02:39:00;;;;;;;42.30;7.63;;;;;;;11.02;65.89;101050.19;5197369;28;20411;-43
2022/01/03 02:41:33;;;;;;;57.50;9.45;;;;;;;11.00;66.04;101046.06;5210147;28;20405;-43
2022/01/03 02:44:06;;;;;;;44.65;8.65;;;;;;;10.99;66.10;101039.09;5196467;28;20506;-44
2022/01/03 02:46:40;;;;;;;46.28;10.82;;;;;;;11.01;65.86;101037.97;5200473;28;20894;-42
2022/01/03 02:49:12;;;;;;;44.08;9.68;;;;;;;11.02;65.99;101041.44;5201415;28;20808;-42
2022/01/03 02:51:46;;;;;;;45.70;9.63;;;;;;;11.00;66.02;101046.88;5211237;28;20599;-42
2022/01/03 02:54:19;;;;;;;44.30;10.35;;;;;;;11.06;66.08;101033.06;5202002;28;20775;-42
2022/01/03 02:56:51;;;;;;;51.92;9.68;;;;;;;11.07;66.03;101029.44;5195696;28;20410;-42
2022/01/03 02:59:24;;;;;;;50.42;9.27;;;;;;;11.07;65.94;101039.19;5190754;28;20425;-43
2022/01/03 03:01:56;;;;;;;48.47;9.10;;;;;;;11.08;65.96;101032.91;5197599;28;20465;-43
2022/01/03 03:04:29;;;;;;;48.88;10.40;;;;;;;11.05;66.06;101038.50;5193486;28;20885;-42
2022/01/03 03:07:17;;;;;;;46.97;8.30;;;;;;;11.05;66.08;101028.75;5184541;28;20903;-46
2022/01/03 03:09:49;;;;;;;48.35;9.07;;;;;;;11.01;66.07;101019.47;5204697;28;20448;-43
2022/01/03 03:12:24;;;;;;;40.63;9.90;;;;;;;11.05;65.98;101034.03;5191601;28;20418;-43
2022/01/03 03:14:56;;;;;;;46.60;10.70;;;;;;;11.07;65.94;101036.53;5196769;28;20502;-42
2022/01/03 03:17:28;;;;;;;42.97;9.00;;;;;;;11.10;65.93;101022.22;5203107;28;20411;-42
2022/01/03 03:20:06;;;;;;;45.70;9.05;;;;;;;11.12;66.00;101041.38;5185090;28;20407;-46
2022/01/03 03:22:40;;;;;;;47.88;9.77;;;;;;;10.98;65.97;101001.25;5193140;28;20407;-43
2022/01/03 03:25:16;;;;;;;53.40;9.40;;;;;;;11.14;65.89;101031.50;5189193;28;20790;-42
2022/01/03 03:27:51;;;;;;;38.15;9.15;;;;;;;11.14;65.87;101032.31;5191562;28;20434;-46
2022/01/03 03:30:26;;;;;;;45.45;10.55;;;;;;;11.13;65.95;101038.59;5192936;28;20480;-43
2022/01/03 03:33:05;;;;;;;47.17;10.32;;;;;;;11.14;65.84;101026.22;5189263;28;20416;-43
2022/01/03 03:35:38;;;;;;;45.95;10.85;;;;;;;10.87;65.95;100996.19;5195818;28;20447;-42
2022/01/03 03:38:12;;;;;;;51.78;10.52;;;;;;;11.16;65.76;101042.75;5195631;28;20413;-43
2022/01/03 03:40:47;;;;;;;41.17;7.90;;;;;;;11.14;65.88;101026.22;5192234;28;20420;-42
2022/01/03 03:43:19;;;;;;;45.17;10.13;;;;;;;11.11;65.87;101026.50;5201168;28;20433;-43
2022/01/03 03:45:52;;;;;;;47.42;9.88;;;;;;;11.11;65.97;101034.44;5206273;28;20406;-42
2022/01/03 03:48:24;;;;;;;51.35;8.30;;;;;;;11.10;65.96;101027.50;5205400;28;20481;-42
2022/01/03 03:50:57;;;;;;;51.10;11.15;;;;;;;11.07;65.85;101029.44;5198284;28;20767;-44
2022/01/03 03:53:30;;;;;;;46.22;9.32;;;;;;;11.06;66.17;101043.66;5193890;28;20412;-46
2022/01/03 03:56:03;;;;;;;37.03;9.60;;;;;;;11.05;66.05;101060.47;5190606;28;20402;-47
2022/01/03 03:58:35;;;;;;;49.67;9.65;;;;;;;11.04;65.98;101029.75;5205012;28;20409;-43
2022/01/03 04:01:08;;;;;;;39.30;9.40;;;;;;;11.04;66.04;101032.38;5195125;28;20853;-46
2022/01/03 04:03:40;;;;;;;51.25;9.88;;;;;;;11.05;65.98;101034.03;5208248;28;20433;-43
2022/01/03 04:06:12;;;;;;;49.70;10.88;;;;;;;11.04;65.82;101024.44;5193222;28;20770;-43
2022/01/03 04:08:46;;;;;;;58.20;11.43;;;;;;;11.05;65.96;101028.75;5197619;28;20421;-43
2022/01/03 04:11:19;;;;;;;50.03;10.23;;;;;;;11.05;65.94;101018.19;5194592;28;20413;-43
2022/01/03 04:13:52;;;;;;;50.47;9.85;;;;;;;11.04;65.92;101024.44;5196658;28;20398;-43
2022/01/03 04:16:24;;;;;;;51.77;11.13;;;;;;;11.03;66.01;101021.97;5192828;28;20459;-42
2022/01/03 04:18:56;;;;;;;45.55;9.60;;;;;;;11.04;66.02;101027.09;5191071;28;20418;-43
2022/01/03 04:21:29;;;;;;;66.80;12.73;;;;;;;11.04;65.91;101021.81;5196734;28;20416;-43
2022/01/03 04:24:02;;;;;;;56.45;10.63;;;;;;;11.04;65.85;101015.69;5187171;28;20971;-47
2022/01/03 04:26:35;;;;;;;46.00;9.65;;;;;;;11.05;65.59;100997.03;5191675;28;20416;-42
2022/01/03 04:29:08;;;;;;;53.25;10.75;;;;;;;11.03;66.01;101004.31;5188295;28;20441;-43
2022/01/03 04:31:40;;;;;;;49.55;10.38;;;;;;;11.03;66.03;101009.59;5193532;28;20437;-46
2022/01/03 04:34:13;;;;;;;59.30;12.48;;;;;;;11.00;66.01;101004.59;5187054;28;20409;-42
2022/01/03 04:36:45;;;;;;;52.65;10.32;;;;;;;10.97;66.11;101004.88;5189388;28;20431;-42
2022/01/03 04:39:19;;;;;;;51.65;11.23;;;;;;;11.01;66.04;101003.59;5191213;28;20425;-43
2022/01/03 04:41:51;;;;;;;56.20;11.27;;;;;;;11.01;65.85;100987.75;5198167;28;20413;-42
2022/01/03 04:44:24;;;;;;;45.47;9.65;;;;;;;11.00;65.91;100996.66;5191977;28;20879;-43
2022/01/03 04:46:56;;;;;;;68.15;10.90;;;;;;;11.00;65.88;100987.91;5195719;28;20493;-42
2022/01/03 04:49:28;;;;;;;45.10;10.00;;;;;;;10.98;65.83;100977.47;5187940;28;20445;-42
2022/01/03 04:52:01;;;;;;;56.33;10.33;;;;;;;10.95;66.02;100988.34;5195607;28;20537;-43
2022/01/03 04:54:34;;;;;;;54.90;11.27;;;;;;;10.94;65.87;100989.34;5190492;28;20532;-43
2022/01/03 04:57:07;;;;;;;51.65;11.65;;;;;;;10.94;65.94;100988.50;5192098;28;20424;-43
2022/01/03 04:59:39;;;;;;;54.83;10.52;;;;;;;10.95;65.83;100980.41;5198510;28;20743;-43
2022/01/03 05:02:11;;;;;;;58.03;11.05;;;;;;;10.96;65.92;100994.44;5184171;28;20425;-41
2022/01/03 05:04:44;;;;;;;45.05;9.25;;;;;;;10.97;65.70;100989.03;5191578;28;20419;-42
2022/01/03 05:07:16;;;;;;;58.22;9.63;;;;;;;10.95;65.84;100996.28;5193395;28;20992;-45
2022/01/03 05:09:50;;;;;;;61.80;12.90;;;;;;;10.95;65.85;100996.28;5189364;28;20413;-43
2022/01/03 05:12:22;;;;;;;57.28;11.98;;;;;;;10.87;65.86;100980.34;5190527;28;20396;-42
2022/01/03 05:14:55;;;;;;;46.90;9.95;;;;;;;10.93;65.87;100987.69;5193468;28;20403;-42
2022/01/03 05:17:29;;;;;;;60.15;11.55;;;;;;;10.92;65.79;100974.59;5190307;28;20892;-43
2022/01/03 05:20:01;;;;;;;52.67;9.57;;;;;;;10.91;65.94;100989.63;5199324;28;20415;-44
2022/01/03 05:22:33;;;;;;;59.70;11.55;;;;;;;10.92;65.88;100970.13;5185297;28;20407;-43
2022/01/03 05:25:09;;;;;;;62.85;11.48;;;;;;;10.92;65.77;100964.84;5196581;28;20899;-42
2022/01/03 05:27:42;;;;;;;64.60;13.15;;;;;;;10.92;65.85;100977.25;5183422;28;20558;-42
2022/01/03 05:30:14;;;;;;;59.28;11.75;;;;;;;10.90;65.82;100966.84;5198209;28;20412;-41
2022/01/03 05:32:46;;;;;;;50.05;9.98;;;;;;;10.84;65.31;100959.50;5193925;28;20434;-41
2022/01/03 05:35:19;;;;;;;54.63;11.32;;;;;;;10.82;65.84;100964.09;5187212;28;20433;-43
2022/01/03 05:37:51;;;;;;;64.10;14.20;;;;;;;10.91;65.81;100968.50;5185082;28;20506;-43
2022/01/03 05:40:25;;;;;;;58.55;11.50;;;;;;;10.90;65.77;100961.56;5199616;28;20399;-43
2022/01/03 05:42:58;;;;;;;61.17;12.27;;;;;;;10.89;65.71;100965.16;5186894;28;20415;-44
2022/01/03 05:45:30;;;;;;;59.77;11.70;;;;;;;10.87;65.72;100951.28;5191309;28;20413;-46
2022/01/03 05:48:02;;;;;;;75.95;12.48;;;;;;;10.87;65.84;100956.56;5189975;28;20421;-44
2022/01/03 05:50:35;;;;;;;62.97;12.68;;;;;;;10.87;65.87;100967.13;5190323;28;20891;-42
2022/01/03 05:53:07;;;;;;;49.17;11.18;;;;;;;10.85;65.89;100969.09;5199821;28;21022;-42
2022/01/03 05:55:41;;;;;;;60.08;11.85;;;;;;;10.83;65.94;100961.28;5188542;28;20432;-41
2022/01/03 05:58:13;;;;;;;52.77;12.13;;;;;;;10.82;66.01;100958.81;5193303;28;20450;-41
2022/01/03 06:00:46;;;;;;;54.03;11.27;;;;;;;10.86;65.89;100952.25;5186320;28;20414;-43
2022/01/03 06:03:21;;;;;;;63.17;11.53;;;;;;;10.78;66.06;100933.69;5192767;28;20433;-42
2022/01/03 06:06:06;;;;;;;64.68;12.90;;;;;;;10.84;66.04;100947.13;5186953;28;21048;-42
2022/01/03 06:08:38;;;;;;;57.57;13.20;;;;;;;10.88;66.30;100946.81;5193787;28;20902;-42
2022/01/03 06:11:12;;;;;;;53.63;11.00;;;;;;;10.89;65.96;100957.22;5194429;28;20433;-43
2022/01/03 06:13:44;;;;;;;60.72;11.70;;;;;;;10.90;65.98;100958.91;5186630;28;20437;-41
2022/01/03 06:16:16;;;;;;;57.65;10.75;;;;;;;10.92;65.99;100950.81;5190353;28;20455;-44
2022/01/03 06:18:50;;;;;;;58.30;11.70;;;;;;;10.93;65.87;100945.41;5194582;28;20419;-42
2022/01/03 06:21:22;;;;;;;55.75;12.00;;;;;;;10.93;65.87;100944.53;5191762;28;20440;-45
2022/01/03 06:23:55;;;;;;;54.37;11.33;;;;;;;10.85;65.83;100937.38;5197652;28;20942;-42
2022/01/03 06:26:28;;;;;;;57.30;12.13;;;;;;;10.88;65.90;100944.19;5189520;28;20846;-43
2022/01/03 06:29:01;;;;;;;64.70;12.57;;;;;;;10.87;65.98;100955.72;5188107;28;20434;-41
2022/01/03 06:31:34;;;;;;;61.20;12.25;;;;;;;10.85;65.91;100938.19;5200016;28;20423;-42
2022/01/03 06:34:06;;;;;;;54.25;10.02;;;;;;;10.83;66.19;100937.50;5184348;28;20546;-43
2022/01/03 06:36:38;;;;;;;52.95;10.20;;;;;;;10.82;66.09;100927.09;5199589;28;20409;-42
2022/01/03 06:39:12;;;;;;;52.60;11.07;;;;;;;10.79;66.05;100932.69;5201200;28;20453;-43
2022/01/03 06:41:46;;;;;;;50.63;11.30;;;;;;;10.78;66.06;100928.41;5193771;28;20418;-43
2022/01/03 06:44:18;;;;;;;60.28;11.50;;;;;;;10.78;66.13;100931.03;5185033;28;20430;-44
2022/01/03 06:46:51;;;;;;;56.75;11.43;;;;;;;10.79;66.20;100927.41;5193958;28;20418;-42
2022/01/03 06:49:24;;;;;;;52.13;11.82;;;;;;;10.78;66.00;100931.03;5196117;28;20409;-42
2022/01/03 06:51:56;;;;;;;46.35;9.50;;;;;;;10.76;66.01;100939.09;5184665;28;20421;-42
2022/01/03 06:54:30;;;;;;;51.88;10.93;;;;;;;10.78;66.03;100936.31;5197064;28;20485;-43
2022/01/03 06:57:04;;;;;;;57.13;11.30;;;;;;;10.79;66.12;100937.97;5195269;28;20968;-45
2022/01/03 06:59:36;;;;;;;57.47;10.57;;;;;;;10.71;65.99;100920.22;5198551;28;20402;-41
2022/01/03 07:02:09;;;;;;;60.70;11.13;;;;;;;10.79;66.02;100937.97;5202822;28;20780;-43
2022/01/03 07:04:43;;;;;;;50.38;9.95;;;;;;;10.80;66.11;100955.47;5198786;28;20532;-46
2022/01/03 07:07:15;;;;;;;44.03;9.87;;;;;;;10.80;66.00;100950.19;5198758;28;20477;-44
2022/01/03 07:09:47;;;;;;;56.97;11.23;;;;;;;10.80;65.90;100939.63;5199353;28;21008;-44
2022/01/03 07:12:21;;;;;;;49.40;10.77;;;;;;;10.80;66.11;100932.53;5200510;28;20419;-43
2022/01/03 07:20:34;;;;;;;53.50;11.23;;;;;;;10.83;66.21;100931.41;5189889;28;20407;-43
2022/01/03 07:23:06;;;;;;;54.75;10.80;;;;;;;10.83;66.16;100934.88;5184232;28;20419;-42
2022/01/03 07:25:39;;;;;;;46.17;10.32;;;;;;;10.84;66.22;100941.00;5188309;28;20429;-41
2022/01/03 07:28:13;;;;;;;46.95;10.88;;;;;;;10.83;66.29;100928.75;5190725;28;20407;-41
2022/01/03 07:30:46;;;;;;;46.38;9.15;;;;;;;10.82;66.10;100927.94;5185104;28;20745;-44
2022/01/03 07:33:19;;;;;;;53.85;10.32;;;;;;;10.81;66.06;100920.16;5191253;28;20415;-42
2022/01/03 07:35:51;;;;;;;56.67;10.82;;;;;;;10.79;66.32;100930.88;5191446;28;29082;-42
2022/01/03 07:38:23;;;;;;;56.67;11.43;;;;;;;10.80;66.14;100931.69;5191583;28;20818;-42
2022/01/03 07:40:56;;;;;;;52.78;11.63;;;;;;;10.79;66.05;100941.44;5188932;28;20728;-42
2022/01/03 07:43:29;;;;;;;52.05;10.68;;;;;;;10.79;66.05;100948.53;5190668;28;20407;-42
2022/01/03 07:46:01;;;;;;;54.83;12.07;;;;;;;10.78;65.98;100946.88;5187829;28;20459;-43
2022/01/03 07:48:34;;;;;;;59.53;11.30;;;;;;;10.77;65.95;100947.84;5190889;28;20493;-42
2022/01/03 07:51:06;;;;;;;52.83;11.43;;;;;;;10.78;65.91;100963.56;5179379;28;20415;-42
2022/01/03 07:53:39;;;;;;;51.30;11.63;;;;;;;10.79;66.02;100965.22;5191185;28;20426;-41
2022/01/03 07:56:11;;;;;;;50.03;10.00;;;;;;;10.83;66.02;100960.47;5177872;28;20780;-42
2022/01/03 07:58:45;;;;;;;55.85;10.85;;;;;;;10.83;66.09;100955.19;5190251;28;20446;-42
2022/01/03 08:01:17;;;;;;;50.45;9.98;;;;;;;10.86;66.05;100965.44;5190722;28;20422;-43
2022/01/03 08:03:50;;;;;;;52.10;11.40;;;;;;;10.87;66.00;100959.22;5191264;28;20419;-43
2022/01/03 08:06:22;;;;;;;51.40;11.50;;;;;;;10.87;66.04;100967.13;5191550;28;20901;-44
2022/01/03 08:08:55;;;;;;;48.80;11.07;;;;;;;10.88;66.00;100966.16;5191499;28;20408;-42
2022/01/03 08:11:27;;;;;;;49.78;10.40;;;;;;;10.82;65.93;100966.75;5190107;28;20879;-42
2022/01/03 08:14:01;;;;;;;48.58;10.23;;;;;;;10.80;66.00;100951.00;5185015;28;20442;-44
2022/01/03 08:16:33;;;;;;;53.07;12.33;;;;;;;10.89;66.13;100970.44;5187127;28;20515;-44
2022/01/03 08:19:06;;;;;;;65.32;12.10;;;;;;;10.90;65.95;100968.63;5190611;28;20429;-43
2022/01/03 08:21:38;;;;;;;53.03;10.65;;;;;;;10.91;65.91;100972.94;5194062;28;20415;-44
2022/01/03 08:24:10;;;;;;;61.05;11.82;;;;;;;10.92;65.77;100975.44;5193825;28;20482;-44
2022/01/03 08:26:43;;;;;;;50.83;9.57;;;;;;;10.93;65.80;100970.97;5190588;28;20413;-42
2022/01/03 08:29:17;;;;;;;47.95;10.52;;;;;;;10.94;66.11;100973.47;5194003;28;20423;-43
2022/01/03 08:31:49;;;;;;;49.05;10.73;;;;;;;10.97;65.84;100973.19;5191809;28;20418;-43
2022/01/03 08:34:22;;;;;;;51.25;10.63;;;;;;;10.99;65.87;100981.75;5199256;28;20416;-43
2022/01/03 08:36:54;;;;;;;50.67;10.07;;;;;;;11.00;66.04;100978.16;5192061;28;20433;-44
2022/01/03 08:39:26;;;;;;;55.65;10.45;;;;;;;10.92;65.88;100956.94;5201025;28;20413;-43
2022/01/03 08:41:59;;;;;;;45.37;9.80;;;;;;;11.04;65.74;100957.56;5195085;28;20502;-46
2022/01/03 08:44:33;;;;;;;54.25;10.50;;;;;;;10.97;65.71;100956.50;5195663;28;20415;-44
2022/01/03 08:47:06;;;;;;;47.70;11.68;;;;;;;11.06;65.70;100972.28;5199615;28;20419;-43
2022/01/03 08:49:39;;;;;;;42.13;10.30;;;;;;;10.98;65.70;100961.63;5192518;28;20418;-43
2022/01/03 08:52:11;;;;;;;44.75;10.05;;;;;;;11.16;65.67;100974.03;5198887;28;20907;-43
2022/01/03 08:54:43;;;;;;;46.85;10.43;;;;;;;11.22;65.56;100968.13;5188187;28;20899;-43
2022/01/03 08:57:16;;;;;;;53.13;10.73;;;;;;;11.26;65.44;100972.13;5187586;28;20415;-44
2022/01/03 08:59:51;;;;;;;44.80;10.13;;;;;;;11.30;65.60;100973.50;5196985;28;20411;-49
2022/01/03 09:02:23;;;;;;;50.03;11.65;;;;;;;11.35;65.53;100965.13;5198408;28;20475;-43
2022/01/03 09:04:55;;;;;;;49.22;10.57;;;;;;;11.38;65.48;100964.81;5192210;28;20394;-43
2022/01/03 09:07:28;;;;;;;54.97;9.60;;;;;;;11.41;65.48;100969.78;5204496;28;20902;-44
2022/01/03 09:10:00;;;;;;;56.53;10.40;;;;;;;11.45;65.42;100961.41;5199537;28;20796;-44
2022/01/03 09:12:32;;;;;;;52.38;10.85;;;;;;;11.46;65.41;100959.59;5194309;28;20413;-48
2022/01/03 09:15:07;;;;;;;42.28;9.15;;;;;;;11.51;65.40;100960.78;5187993;28;20745;-44
2022/01/03 09:17:40;;;;;;;49.95;9.77;;;;;;;11.58;65.33;100976.03;5200019;28;20424;-43
2022/01/03 09:20:13;;;;;;;44.03;9.40;;;;;;;11.52;65.26;100973.03;5197706;28;20409;-43
2022/01/03 09:22:48;;;;;;;42.40;9.02;;;;;;;11.63;65.31;100979.91;5190546;28;20422;-42
2022/01/03 09:31:10;;;;;;;50.75;10.50;;;;;;;11.69;65.18;100967.88;5192573;28;20906;-43
2022/01/03 09:33:42;;;;;;;42.08;9.20;;;;;;;11.66;65.10;100965.53;5205010;28;20488;-43
2022/01/03 09:36:15;;;;;;;39.67;8.18;;;;;;;11.56;65.11;100930.41;5194419;28;20966;-43
2022/01/03 09:38:48;;;;;;;37.92;8.25;;;;;;;11.73;65.00;100954.16;5194891;28;20892;-46
2022/01/03 09:41:23;;;;;;;39.20;9.43;;;;;;;11.77;65.01;100958.19;5157904;28;20465;-44
2022/01/03 09:43:59;;;;;;;51.42;10.75;;;;;;;11.82;64.95;100960.34;5165730;28;20756;-44
2022/01/03 09:46:37;;;;;;;38.75;9.38;;;;;;;11.82;64.89;100952.41;5180824;28;20406;-43
2022/01/03 09:49:12;;;;;;;41.37;8.53;;;;;;;11.71;64.62;100932.34;5189158;28;20730;-44
2022/01/03 09:51:45;;;;;;;43.00;9.00;;;;;;;11.90;64.69;100963.09;5194216;28;20427;-44
2022/01/03 09:54:20;;;;;;;42.03;8.93;;;;;;;11.94;64.67;100945.09;5184821;28;20433;-46
2022/01/03 09:56:53;;;;;;;43.80;9.03;;;;;;;11.94;64.52;100951.22;5186266;28;20609;-43
2022/01/03 09:59:26;;;;;;;43.95;8.90;;;;;;;11.95;64.61;100947.59;5198638;28;20523;-44
2022/01/03 10:02:00;;;;;;;39.95;9.02;;;;;;;11.95;64.52;100966.13;5183661;28;20410;-43
2022/01/03 10:04:33;;;;;;;40.67;8.48;;;;;;;11.97;64.52;100956.19;5190824;28;20424;-47
2022/01/03 10:07:11;;;;;;;40.88;9.80;;;;;;;12.00;64.45;100950.59;5192049;28;20411;-44
2022/01/03 10:09:44;;;;;;;37.35;7.93;;;;;;;11.99;64.30;100930.41;5183705;28;20463;-43
2022/01/03 10:12:19;;;;;;;38.22;8.45;;;;;;;12.11;64.15;100940.72;5176763;28;20435;-44
2022/01/03 10:14:51;;;;;;;48.30;9.23;;;;;;;12.16;64.14;100949.03;5201507;28;22194;-44
2022/01/03 10:17:25;;;;;;;43.33;9.38;;;;;;;12.17;64.01;100955.97;5190218;28;20953;-45
2022/01/03 10:20:01;;;;;;;34.80;8.77;;;;;;;12.18;63.95;100936.47;5191201;28;20417;-44
2022/01/03 10:22:35;;;;;;;45.00;8.95;;;;;;;12.16;63.70;100933.97;5182866;28;20413;-44
2022/01/03 10:25:17;;;;;;;47.85;9.50;;;;;;;12.24;63.51;100941.13;5196049;28;20791;-44
2022/01/03 10:27:52;;;;;;;37.38;8.27;;;;;;;12.26;63.72;100933.00;5189015;28;20437;-43
2022/01/03 10:30:40;;;;;;;43.97;10.38;;;;;;;12.27;63.71;100935.53;5180662;28;21063;-44
2022/01/03 10:33:17;;;;;;;37.35;8.07;;;;;;;12.31;63.55;100952.75;5188360;28;20490;-43
2022/01/03 10:35:52;;;;;;;42.38;9.98;;;;;;;12.28;63.87;100929.22;5192694;28;20418;-43
2022/01/03 10:38:36;;;;;;;37.47;8.20;;;;;;;12.32;63.53;100933.19;5198549;28;20989;-42
2022/01/03 10:41:15;;;;;;;41.30;7.97;;;;;;;12.38;63.39;100916.69;5188900;28;20831;-42
2022/01/03 10:43:50;;;;;;;38.65;9.02;;;;;;;12.39;63.37;100928.94;5186068;28;20426;-42
2022/01/03 10:46:25;;;;;;;45.85;9.30;;;;;;;12.42;63.30;100926.00;5197089;28;20409;-44
2022/01/03 10:49:10;;;;;;;42.25;8.40;;;;;;;12.42;63.16;100923.34;5194735;28;20422;-44
2022/01/03 10:51:43;;;;;;;40.17;8.23;;;;;;;12.44;63.13;100931.09;5189039;28;20873;-46
2022/01/03 10:54:18;;;;;;;39.67;8.63;;;;;;;12.38;63.16;100911.38;5189098;28;20423;-43
2022/01/03 10:56:51;;;;;;;47.67;9.27;;;;;;;12.46;63.28;100918.53;5196175;28;20424;-46
2022/01/03 10:59:30;;;;;;;48.25;9.93;;;;;;;12.48;62.96;100910.41;5189360;28;20526;-45
2022/01/03 11:02:06;;;;;;;48.22;10.15;;;;;;;12.39;62.95;100886.56;5190552;28;20428;-50
2022/01/03 11:04:48;;;;;;;45.60;9.98;;;;;;;12.49;62.90;100901.50;5195539;28;20552;-43
2022/01/03 11:10:45;;;;;;;55.17;10.45;;;;;;;12.51;62.67;100889.75;5155238;28;20824;-44
2022/01/03 11:13:20;;;;;;;53.92;10.40;;;;;;;12.55;62.72;100891.09;5186694;28;20427;-44
2022/01/03 11:15:56;;;;;;;45.83;9.82;;;;;;;12.23;62.59;100839.69;5187661;28;20416;-45
2022/01/03 11:18:30;;;;;;;46.10;9.23;;;;;;;12.56;62.59;100881.31;5188808;28;20425;-43
2022/01/03 11:21:09;;;;;;;42.65;9.52;;;;;;;12.59;62.44;100883.66;5189876;28;20484;-44
2022/01/03 11:23:44;;;;;;;35.90;7.88;;;;;;;12.62;62.61;100885.97;5151329;28;20545;-44
2022/01/03 11:26:19;;;;;;;41.85;9.57;;;;;;;12.62;62.56;100870.06;5156125;28;20441;-43
2022/01/03 11:28:51;;;;;;;49.00;9.88;;;;;;;12.65;62.39;100875.88;5153937;28;20441;-43
2022/01/03 11:31:24;;;;;;;44.67;9.57;;;;;;;12.67;62.36;100867.78;5155963;28;20429;-43
2022/01/03 11:33:58;;;;;;;40.03;9.55;;;;;;;12.68;62.37;100862.31;5153999;28;20492;-42
2022/01/03 11:36:37;;;;;;;41.63;10.23;;;;;;;12.66;62.33;100845.72;5159691;28;20566;-44
2022/01/03 11:39:40;;;;;;;44.75;10.68;;;;;;;12.75;62.21;100865.13;5157384;28;20449;-44
2022/01/03 11:42:13;;;;;;;46.67;9.55;;;;;;;12.77;62.08;100852.56;5152343;28;20435;-45
2022/01/03 11:44:46;;;;;;;40.00;10.40;;;;;;;12.76;62.18;100856.19;5161799;28;20905;-43
2022/01/03 11:47:19;;;;;;;41.25;8.95;;;;;;;12.75;62.13;100840.44;5153511;28;20423;-46
2022/01/03 11:49:52;;;;;;;49.40;10.15;;;;;;;12.72;62.06;100846.91;5156175;28;20442;-44
2022/01/03 11:52:26;;;;;;;38.90;7.90;;;;;;;12.72;62.05;100849.56;5154724;28;20624;-44
2022/01/03 11:54:58;;;;;;;37.08;8.90;;;;;;;12.75;62.00;100840.44;5154364;28;20429;-44
2022/01/03 11:57:59;;;;;;;38.53;8.70;;;;;;;12.76;61.95;100840.31;5155309;28;20414;-44
2022/01/03 12:03:39;;;;;;;45.80;9.88;;;;;;;12.74;61.79;100831.69;5154771;28;21613;-42
2022/01/03 12:06:11;;;;;;;44.30;10.35;;;;;;;12.77;61.78;100828.69;5146420;28;20419;-44